Tokuyama, Japan
Current Conditions -  °F | °C
As of 4:55 AM on Wednesday 22 Oct 2014 (Local Time) from RJOI Reporting Station
Haze Haze  
Wind Chill: 69°   Ceiling: 8000
Heat Index: 69°   Visibility: 6mi
Dew Point: 63°   Wind: 0mph
Humidity: 81%   Direction: NA
Pressure: 29.8"   Gusts: NA
Location:  34.05°N, 131.8°E
Report Text: RJOI 211955Z 00000KT 9000 BR FEW030 SCT050 OVC080 21/17 A2980 RMK SLP092 T02060172
Loading
Personal Weather Stations






























Interactive Weather Map
Tropical Storm Tracking
New forecast layout! Learn more

10-Day Weather Forecast

Advertisements
Track Severe Weather on mobile